Time;durP1;ratioP1;P1;durP2;ratioP2;P2;SDS_P1;SDS_P2;PMS_P1;PMS_P2;Temp;Humidity;BMP_temperature;BMP_pressure;BME280_temperature;BME280_humidity;BME280_pressure;Samples;Min_cycle;Max_cycle;Signal;HPM_P1;HPM_P2
2023/06/13 00:00:49;;;;;;;7.63;3.88;;;16.20;46.10;;;;;;5004946;28;20184;-70
2023/06/13 00:03:15;;;;;;;8.05;3.75;;;16.10;46.20;;;;;;5003867;28;20212;-70
2023/06/13 00:05:45;;;;;;;10.52;3.85;;;16.10;47.00;;;;;;5010740;28;20111;-68
2023/06/13 00:08:17;;;;;;;9.13;4.00;;;16.10;46.30;;;;;;5000140;28;20045;-69
2023/06/13 00:10:44;;;;;;;12.35;3.38;;;16.10;46.30;;;;;;4998702;28;20030;-68
2023/06/13 00:13:10;;;;;;;7.43;4.03;;;16.10;46.70;;;;;;5001447;28;20125;-70
2023/06/13 00:15:35;;;;;;;9.38;3.38;;;16.00;47.00;;;;;;5001507;28;20022;-70
2023/06/13 00:18:01;;;;;;;7.68;3.60;;;16.00;46.90;;;;;;5006398;28;20063;-68
2023/06/13 00:20:29;;;;;;;10.75;3.75;;;16.00;47.40;;;;;;5006094;28;20030;-68
2023/06/13 00:22:56;;;;;;;12.10;3.70;;;16.00;47.30;;;;;;5006923;28;20136;-68
2023/06/13 00:25:21;;;;;;;7.97;3.60;;;15.90;47.60;;;;;;5002837;28;20418;-68
2023/06/13 00:27:46;;;;;;;6.55;3.55;;;15.90;47.80;;;;;;5011035;28;20054;-68
2023/06/13 00:30:12;;;;;;;7.07;3.70;;;15.80;48.20;;;;;;5006014;28;20304;-68
2023/06/13 00:32:37;;;;;;;11.80;3.83;;;15.80;48.10;;;;;;5004719;28;20050;-68
2023/06/13 00:35:03;;;;;;;13.63;4.10;;;15.70;48.30;;;;;;5006650;28;20513;-68
2023/06/13 00:37:29;;;;;;;13.55;3.75;;;15.70;48.60;;;;;;4999943;28;20131;-69
2023/06/13 00:39:54;;;;;;;9.27;3.90;;;15.70;48.80;;;;;;5004582;28;20336;-69
2023/06/13 00:42:20;;;;;;;6.38;3.40;;;15.60;48.70;;;;;;5003182;28;20311;-68
2023/06/13 00:44:46;;;;;;;9.43;3.38;;;15.60;48.70;;;;;;5005038;28;20227;-68
2023/06/13 00:47:13;;;;;;;7.82;3.47;;;15.50;48.50;;;;;;5005708;28;20042;-69
2023/06/13 00:49:41;;;;;;;7.40;3.78;;;15.50;48.60;;;;;;5026732;28;20084;-68
2023/06/13 00:52:08;;;;;;;6.65;3.22;;;15.50;49.00;;;;;;5001888;28;20362;-69
2023/06/13 00:54:37;;;;;;;9.57;3.78;;;15.50;49.00;;;;;;4999207;28;20029;-69
2023/06/13 00:57:05;;;;;;;7.03;3.47;;;15.40;49.20;;;;;;5006962;28;20398;-69
2023/06/13 00:59:31;;;;;;;6.38;3.80;;;15.40;49.50;;;;;;5006179;28;20064;-68
2023/06/13 01:01:56;;;;;;;8.23;3.25;;;15.40;49.50;;;;;;5001782;28;20465;-71
2023/06/13 01:04:22;;;;;;;6.22;3.65;;;15.40;49.80;;;;;;5004782;28;20040;-68
2023/06/13 01:06:49;;;;;;;8.05;3.85;;;15.30;50.10;;;;;;4999354;28;20335;-70
2023/06/13 01:09:16;;;;;;;6.68;3.83;;;15.30;49.90;;;;;;5001853;28;20033;-73
2023/06/13 01:12:23;;;;;;;6.57;3.20;;;15.20;50.20;;;;;;5006113;28;20073;-68
2023/06/13 01:15:01;;;;;;;8.55;3.38;;;15.30;49.90;;;;;;5007836;28;20323;-69
2023/06/13 01:17:34;;;;;;;9.68;3.83;;;15.20;50.40;;;;;;5005111;28;20033;-69
2023/06/13 01:20:04;;;;;;;15.98;3.53;;;15.10;50.70;;;;;;4998190;28;20100;-69
2023/06/13 01:22:54;;;;;;;7.18;3.22;;;15.00;50.70;;;;;;4999693;28;20078;-69
2023/06/13 01:25:37;;;;;;;7.80;3.25;;;15.00;51.40;;;;;;4997391;28;20541;-68
2023/06/13 01:28:05;;;;;;;8.45;3.42;;;15.00;51.80;;;;;;5005871;28;20021;-68
2023/06/13 01:30:31;;;;;;;4.68;2.80;;;14.90;51.50;;;;;;4999847;28;20075;-68
2023/06/13 01:32:57;;;;;;;7.43;3.40;;;14.80;51.80;;;;;;5007138;28;20030;-70
2023/06/13 01:35:24;;;;;;;7.13;3.50;;;14.80;52.30;;;;;;5013227;28;20072;-70
2023/06/13 01:37:50;;;;;;;9.90;3.53;;;14.70;52.40;;;;;;5004237;28;20018;-68
2023/06/13 01:40:16;;;;;;;7.97;4.10;;;14.70;53.00;;;;;;5005930;28;20124;-69
2023/06/13 01:42:42;;;;;;;10.75;3.70;;;14.70;52.40;;;;;;5003187;28;20488;-68
2023/06/13 01:45:08;;;;;;;9.27;3.85;;;14.60;52.50;;;;;;5006039;28;20075;-68
2023/06/13 01:47:46;;;;;;;8.50;3.88;;;14.60;53.40;;;;;;5005043;28;20160;-68
2023/06/13 01:50:30;;;;;;;6.45;3.22;;;14.50;53.30;;;;;;5001333;28;20097;-69
2023/06/13 01:53:02;;;;;;;8.98;3.72;;;14.40;53.90;;;;;;5000936;28;20110;-69
2023/06/13 01:55:38;;;;;;;7.28;3.50;;;14.30;55.00;;;;;;5027523;28;20088;-68
2023/06/13 01:58:11;;;;;;;6.28;3.13;;;14.20;55.10;;;;;;5011968;28;20048;-68
2023/06/13 02:00:40;;;;;;;7.63;2.80;;;14.10;55.20;;;;;;5005674;28;20018;-70
2023/06/13 02:03:06;;;;;;;10.35;3.53;;;14.00;56.30;;;;;;5006388;28;20030;-69
2023/06/13 02:05:32;;;;;;;6.35;3.00;;;13.90;56.20;;;;;;5017788;28;20025;-68
2023/06/13 02:07:57;;;;;;;8.13;2.83;;;13.80;57.00;;;;;;5005736;28;21541;-71
2023/06/13 02:10:24;;;;;;;5.88;2.75;;;13.70;56.40;;;;;;5010645;28;20088;-69
2023/06/13 02:12:49;;;;;;;12.05;3.22;;;13.60;56.80;;;;;;5012566;28;20034;-68
2023/06/13 02:15:15;;;;;;;7.03;2.88;;;13.50;57.50;;;;;;5007567;28;20022;-69
2023/06/13 02:17:40;;;;;;;9.57;2.88;;;13.40;57.40;;;;;;5007207;28;20128;-73
2023/06/13 02:20:06;;;;;;;8.88;3.00;;;13.30;57.30;;;;;;5008246;28;20037;-71
2023/06/13 02:22:32;;;;;;;5.72;2.80;;;13.30;58.50;;;;;;5001716;28;20070;-68
2023/06/13 02:24:59;;;;;;;8.73;2.92;;;13.20;58.40;;;;;;5007537;28;20103;-68
2023/06/13 02:27:25;;;;;;;8.27;2.88;;;13.10;58.60;;;;;;5004694;28;20049;-68
2023/06/13 02:29:51;;;;;;;5.05;2.33;;;13.00;59.20;;;;;;5009189;28;20022;-68
2023/06/13 02:32:18;;;;;;;4.93;1.92;;;13.00;58.70;;;;;;5014062;28;20041;-67
2023/06/13 02:34:44;;;;;;;5.40;2.22;;;13.10;58.20;;;;;;5006853;28;20118;-68
2023/06/13 02:37:09;;;;;;;6.63;2.28;;;13.10;58.10;;;;;;5002636;28;20446;-70
2023/06/13 02:39:35;;;;;;;6.22;2.28;;;13.20;57.60;;;;;;5004273;28;20049;-68
2023/06/13 02:42:00;;;;;;;5.25;2.15;;;13.30;57.40;;;;;;5007543;28;20045;-68
2023/06/13 02:44:25;;;;;;;7.50;2.00;;;13.30;57.30;;;;;;5006904;28;20473;-69
2023/06/13 02:46:51;;;;;;;3.90;2.05;;;13.30;57.20;;;;;;5004257;28;20041;-70
2023/06/13 02:49:16;;;;;;;5.97;1.90;;;13.40;56.90;;;;;;5007805;28;20086;-68
2023/06/13 02:51:42;;;;;;;6.28;1.70;;;13.30;57.70;;;;;;5006416;28;20737;-70
2023/06/13 02:54:07;;;;;;;3.30;1.70;;;13.40;57.00;;;;;;5004849;28;20041;-69
2023/06/13 02:56:33;;;;;;;5.18;1.52;;;13.40;57.10;;;;;;5018850;28;20312;-68
2023/06/13 02:58:59;;;;;;;2.33;1.42;;;13.30;57.20;;;;;;5007026;28;20064;-68
2023/06/13 03:01:26;;;;;;;6.97;1.70;;;13.30;58.40;;;;;;5010048;28;20129;-68
2023/06/13 03:03:52;;;;;;;3.38;1.55;;;13.30;58.50;;;;;;5011485;28;20029;-67
2023/06/13 03:06:18;;;;;;;3.70;1.67;;;13.20;59.10;;;;;;5010645;28;20556;-68
2023/06/13 03:08:44;;;;;;;5.15;1.85;;;13.10;58.80;;;;;;4998314;28;20030;-69
2023/06/13 03:11:12;;;;;;;3.17;1.90;;;13.10;59.00;;;;;;5010385;28;21373;-68
2023/06/13 03:13:38;;;;;;;4.78;1.73;;;13.00;59.30;;;;;;5009517;28;20022;-68
2023/06/13 03:16:04;;;;;;;10.82;1.73;;;13.00;59.20;;;;;;5009822;28;20022;-68
2023/06/13 03:18:29;;;;;;;4.18;1.38;;;13.10;58.80;;;;;;5004594;28;20117;-68
2023/06/13 03:20:55;;;;;;;7.18;2.22;;;13.00;59.60;;;;;;5008290;28;20112;-67
2023/06/13 03:23:20;;;;;;;4.53;1.73;;;13.00;59.60;;;;;;5000281;28;20032;-68
2023/06/13 03:25:46;;;;;;;6.35;1.65;;;13.00;60.00;;;;;;5004134;28;20148;-68
2023/06/13 03:28:12;;;;;;;6.65;1.67;;;13.00;60.40;;;;;;5006532;28;20092;-68
2023/06/13 03:30:38;;;;;;;3.53;1.52;;;13.00;60.30;;;;;;5003501;28;20050;-70
2023/06/13 03:33:03;;;;;;;2.67;1.55;;;12.90;60.10;;;;;;5005634;28;20056;-67
2023/06/13 03:35:30;;;;;;;3.85;1.65;;;12.80;60.90;;;;;;5022093;28;20098;-68
2023/06/13 03:37:56;;;;;;;5.20;1.58;;;12.80;60.90;;;;;;4999296;28;20038;-70
2023/06/13 03:40:21;;;;;;;6.63;1.88;;;12.80;61.00;;;;;;4999597;28;20140;-68
2023/06/13 03:42:47;;;;;;;3.10;1.50;;;12.80;61.10;;;;;;5007653;28;20220;-67
2023/06/13 03:45:15;;;;;;;5.35;1.50;;;12.80;61.30;;;;;;5001238;28;20092;-67
2023/06/13 03:47:40;;;;;;;2.75;1.42;;;12.80;61.30;;;;;;5012247;28;20017;-68
2023/06/13 03:50:06;;;;;;;3.58;1.63;;;12.80;61.30;;;;;;5002883;28;20117;-71
2023/06/13 03:52:32;;;;;;;3.33;1.55;;;12.70;61.80;;;;;;4996765;28;20348;-68
2023/06/13 03:54:57;;;;;;;2.95;1.58;;;12.60;63.00;;;;;;5006906;28;20045;-71
2023/06/13 03:57:23;;;;;;;3.17;1.67;;;12.60;63.60;;;;;;5000556;28;20065;-67
2023/06/13 03:59:48;;;;;;;6.25;1.70;;;12.60;63.40;;;;;;5002401;28;20030;-67
2023/06/13 04:02:14;;;;;;;4.07;1.65;;;12.60;63.80;;;;;;5001737;28;20108;-67
2023/06/13 04:04:46;;;;;;;4.32;1.85;;;12.70;64.40;;;;;;5006361;28;20541;-67
2023/06/13 04:07:11;;;;;;;3.28;1.55;;;12.70;65.10;;;;;;5003693;28;20386;-68
2023/06/13 04:09:37;;;;;;;6.75;1.88;;;12.60;64.90;;;;;;5002332;28;20113;-68
2023/06/13 04:12:02;;;;;;;4.20;1.55;;;12.70;65.10;;;;;;5007588;28;20038;-69
2023/06/13 04:14:28;;;;;;;8.48;1.90;;;12.70;65.10;;;;;;5002579;28;20041;-69
2023/06/13 04:16:54;;;;;;;3.08;1.85;;;12.70;65.10;;;;;;5012338;28;20029;-67
2023/06/13 04:19:19;;;;;;;3.08;1.50;;;12.70;65.90;;;;;;5015725;28;20025;-69
2023/06/13 04:21:46;;;;;;;6.18;1.85;;;12.70;66.60;;;;;;4998372;28;20134;-71
2023/06/13 04:24:15;;;;;;;3.17;1.80;;;12.90;64.60;;;;;;4993102;28;20026;-68
2023/06/13 04:26:41;;;;;;;4.93;1.75;;;12.90;65.60;;;;;;5002301;28;20048;-68
2023/06/13 04:29:08;;;;;;;4.50;1.85;;;13.00;64.80;;;;;;5007584;28;20442;-69
2023/06/13 04:31:35;;;;;;;5.72;1.90;;;13.10;65.10;;;;;;4999845;28;20034;-68
2023/06/13 04:34:07;;;;;;;2.92;1.67;;;13.10;65.10;;;;;;5006073;28;20100;-69
2023/06/13 04:36:35;;;;;;;3.25;1.80;;;13.10;65.10;;;;;;5003943;28;20041;-66
2023/06/13 04:39:06;;;;;;;2.88;1.50;;;13.10;65.70;;;;;;4996061;28;20366;-66
2023/06/13 04:41:37;;;;;;;7.78;2.13;;;13.20;65.70;;;;;;5003504;28;20168;-65
2023/06/13 04:44:03;;;;;;;;;;;13.20;65.40;;;;;;5008773;28;20044;-65
2023/06/13 04:46:30;;;;;;;3.70;1.65;;;13.30;65.80;;;;;;5176118;23;19940;-65
2023/06/13 04:48:57;;;;;;;4.53;1.55;;;13.40;65.60;;;;;;4997399;28;20030;-66
2023/06/13 04:51:23;;;;;;;3.28;1.80;;;13.50;66.10;;;;;;5004754;28;20303;-66
2023/06/13 04:53:49;;;;;;;5.18;1.70;;;13.50;66.40;;;;;;5006893;28;20377;-65
2023/06/13 04:56:15;;;;;;;3.28;1.58;;;13.50;66.20;;;;;;5007067;28;20026;-66
2023/06/13 04:58:40;;;;;;;4.97;2.00;;;13.50;65.80;;;;;;5008783;28;20046;-66
2023/06/13 05:01:07;;;;;;;3.85;1.88;;;13.60;67.20;;;;;;5007328;28;20322;-66
2023/06/13 05:03:34;;;;;;;5.78;2.00;;;13.60;66.60;;;;;;5009618;28;20048;-67
2023/06/13 05:06:00;;;;;;;3.95;1.90;;;13.70;66.50;;;;;;5013831;28;20167;-65
2023/06/13 05:08:26;;;;;;;4.75;1.98;;;13.80;66.60;;;;;;5006517;28;20108;-65
2023/06/13 05:10:53;;;;;;;5.97;1.90;;;13.90;66.50;;;;;;5007445;28;20125;-65
2023/06/13 05:13:18;;;;;;;7.28;1.90;;;14.00;66.50;;;;;;5004192;28;20358;-66
2023/06/13 05:15:44;;;;;;;6.32;1.67;;;14.10;66.80;;;;;;5001105;28;20029;-66
2023/06/13 05:18:12;;;;;;;5.95;2.28;;;14.20;66.70;;;;;;4998921;28;20179;-69
2023/06/13 05:20:39;;;;;;;4.45;2.08;;;14.20;67.30;;;;;;4998709;28;20395;-66
2023/06/13 05:23:05;;;;;;;6.35;1.80;;;14.30;67.50;;;;;;4998642;28;20066;-67
2023/06/13 05:25:31;;;;;;;3.70;1.60;;;14.40;67.10;;;;;;5000836;28;20036;-69
2023/06/13 05:27:56;;;;;;;3.55;1.83;;;14.50;67.30;;;;;;5006056;28;20339;-67
2023/06/13 05:30:22;;;;;;;7.30;2.00;;;14.60;67.20;;;;;;5008720;28;20131;-67
2023/06/13 05:32:48;;;;;;;3.28;1.67;;;14.60;66.80;;;;;;5005881;28;20378;-66
2023/06/13 05:35:13;;;;;;;7.57;1.80;;;14.80;66.20;;;;;;5011488;28;20389;-66
2023/06/13 05:37:39;;;;;;;4.10;2.00;;;15.00;65.80;;;;;;5002138;28;20139;-66
2023/06/13 05:40:11;;;;;;;5.30;1.83;;;15.00;64.90;;;;;;5002101;28;20018;-66
2023/06/13 05:42:37;;;;;;;6.07;1.92;;;15.10;65.10;;;;;;5004764;28;20041;-71
2023/06/13 05:45:03;;;;;;;7.40;1.67;;;15.30;63.20;;;;;;4999915;28;20040;-69
2023/06/13 05:47:29;;;;;;;3.45;1.73;;;15.40;63.20;;;;;;5004944;28;20354;-67
2023/06/13 05:49:55;;;;;;;5.20;1.60;;;15.50;64.10;;;;;;5007571;28;20018;-66
2023/06/13 05:52:20;;;;;;;4.00;1.80;;;15.60;63.00;;;;;;5009267;28;20445;-66
2023/06/13 05:54:46;;;;;;;5.07;1.80;;;15.80;61.90;;;;;;5008030;28;20504;-69
2023/06/13 05:57:12;;;;;;;6.72;1.60;;;16.00;63.00;;;;;;5005764;28;20117;-69
2023/06/13 05:59:38;;;;;;;3.63;1.75;;;16.10;62.30;;;;;;5006272;28;20121;-66
2023/06/13 06:02:03;;;;;;;3.38;1.45;;;16.20;61.00;;;;;;5006531;28;20487;-68
2023/06/13 06:04:29;;;;;;;1.75;1.20;;;16.30;61.30;;;;;;5016044;28;20038;-67
2023/06/13 06:06:54;;;;;;;3.33;1.65;;;16.50;59.30;;;;;;5012503;28;20133;-72
2023/06/13 06:09:20;;;;;;;4.80;1.88;;;16.60;59.30;;;;;;5008544;28;20025;-67
2023/06/13 06:11:45;;;;;;;4.70;1.83;;;16.70;59.00;;;;;;5009376;28;20136;-70
2023/06/13 06:14:11;;;;;;;7.25;1.67;;;16.80;58.40;;;;;;5007086;28;20042;-66
2023/06/13 06:16:36;;;;;;;3.60;1.45;;;17.00;58.30;;;;;;5002001;28;20053;-67
2023/06/13 06:19:02;;;;;;;9.50;1.92;;;17.00;57.50;;;;;;5016755;28;20038;-67
2023/06/13 06:21:28;;;;;;;3.90;1.88;;;17.30;57.60;;;;;;5008606;28;20029;-67
2023/06/13 06:23:53;;;;;;;4.90;1.75;;;17.40;59.30;;;;;;4994012;28;20113;-66
2023/06/13 06:26:20;;;;;;;4.30;2.00;;;17.50;57.10;;;;;;5002741;28;20038;-66
2023/06/13 06:28:46;;;;;;;4.68;1.50;;;17.50;55.60;;;;;;5004748;28;20786;-67
2023/06/13 06:31:12;;;;;;;2.97;1.58;;;17.70;56.40;;;;;;5004124;28;20125;-70
2023/06/13 06:33:37;;;;;;;5.28;1.80;;;17.80;55.80;;;;;;4995432;28;20041;-71
2023/06/13 06:36:03;;;;;;;8.10;1.65;;;17.80;54.30;;;;;;4995666;28;20146;-65
2023/06/13 06:38:28;;;;;;;4.47;1.75;;;18.00;55.20;;;;;;5002172;28;20068;-67
2023/06/13 06:40:54;;;;;;;4.95;1.80;;;18.30;56.70;;;;;;4998382;28;20452;-68
2023/06/13 06:43:19;;;;;;;4.90;1.85;;;18.30;54.90;;;;;;5002356;28;20029;-66
2023/06/13 06:45:45;;;;;;;3.92;1.67;;;18.50;55.70;;;;;;5001118;28;20516;-66
2023/06/13 06:48:11;;;;;;;4.10;1.80;;;18.60;55.50;;;;;;5005466;28;20038;-63
2023/06/13 06:50:37;;;;;;;4.40;1.60;;;18.80;55.60;;;;;;4999961;28;20043;-67
2023/06/13 06:53:03;;;;;;;7.45;1.58;;;18.90;53.70;;;;;;4998356;28;20034;-65
2023/06/13 06:55:28;;;;;;;6.43;2.05;;;19.20;55.60;;;;;;5002595;28;20033;-65
2023/06/13 06:57:54;;;;;;;5.35;1.80;;;19.20;54.50;;;;;;5002035;28;20061;-67
2023/06/13 07:00:21;;;;;;;8.98;1.95;;;19.40;54.40;;;;;;4995431;28;20038;-71
2023/06/13 07:02:46;;;;;;;7.63;1.73;;;19.40;54.50;;;;;;4996386;28;20034;-70
2023/06/13 07:05:12;;;;;;;5.22;1.80;;;19.80;55.00;;;;;;5021114;28;20104;-67
2023/06/13 07:07:37;;;;;;;4.00;1.42;;;19.90;51.20;;;;;;4996758;28;20049;-66
2023/06/13 07:10:05;;;;;;;2.63;1.60;;;19.90;51.00;;;;;;5001763;28;20033;-66
2023/06/13 07:12:32;;;;;;;3.72;1.63;;;20.00;50.80;;;;;;5001052;28;20045;-67
2023/06/13 07:14:58;;;;;;;6.10;2.38;;;20.10;49.30;;;;;;5002011;28;20037;-66
2023/06/13 07:17:24;;;;;;;3.45;1.73;;;20.40;48.20;;;;;;5005317;28;20108;-69
2023/06/13 07:19:49;;;;;;;5.25;1.80;;;20.40;49.60;;;;;;4996871;28;20046;-67
2023/06/13 07:22:15;;;;;;;7.75;1.45;;;20.60;48.80;;;;;;5002582;28;20100;-66
2023/06/13 07:24:40;;;;;;;5.15;1.73;;;20.60;48.90;;;;;;5002191;28;20034;-67
2023/06/13 07:27:06;;;;;;;6.28;1.88;;;20.60;50.10;;;;;;4995241;28;20033;-69
2023/06/13 07:29:32;;;;;;;11.70;1.73;;;20.80;50.30;;;;;;4991280;28;20081;-66
2023/06/13 07:31:57;;;;;;;2.75;1.38;;;21.00;47.00;;;;;;4997218;28;20037;-68
2023/06/13 07:34:23;;;;;;;4.60;1.83;;;21.20;46.90;;;;;;5007284;28;20072;-67
2023/06/13 07:36:48;;;;;;;7.18;1.83;;;21.50;48.20;;;;;;5000051;28;20467;-68
2023/06/13 07:39:14;;;;;;;5.38;1.58;;;21.50;47.40;;;;;;5003823;28;20042;-66
2023/06/13 07:41:40;;;;;;;3.92;1.60;;;21.40;45.50;;;;;;5010397;28;20057;-66
2023/06/13 07:44:06;;;;;;;4.65;1.38;;;21.50;46.80;;;;;;5006765;28;20398;-70
2023/06/13 07:46:31;;;;;;;5.60;1.75;;;21.70;47.20;;;;;;5005895;28;20056;-67
2023/06/13 07:48:57;;;;;;;5.72;1.63;;;21.90;45.60;;;;;;5014076;28;20396;-67
2023/06/13 07:51:24;;;;;;;4.18;1.90;;;22.00;44.80;;;;;;4995766;28;20513;-67
2023/06/13 07:53:49;;;;;;;6.30;1.90;;;22.50;45.50;;;;;;4993914;28;20030;-68
2023/06/13 07:56:15;;;;;;;4.63;1.42;;;22.80;44.20;;;;;;5014820;28;20403;-68
2023/06/13 07:58:40;;;;;;;6.47;1.70;;;22.80;43.60;;;;;;5004197;28;20377;-69
2023/06/13 08:01:06;;;;;;;4.75;1.70;;;22.70;44.00;;;;;;5001105;28;20381;-68
2023/06/13 08:03:31;;;;;;;5.50;1.80;;;23.00;42.70;;;;;;5007116;28;20084;-68
2023/06/13 08:05:57;;;;;;;3.60;1.73;;;23.00;44.80;;;;;;5002619;28;20205;-68
2023/06/13 08:08:23;;;;;;;18.23;2.13;;;23.00;41.60;;;;;;5002606;28;20034;-68
2023/06/13 08:10:48;;;;;;;4.80;1.70;;;23.10;44.20;;;;;;4999369;28;20026;-68
2023/06/13 08:13:14;;;;;;;10.65;2.38;;;23.10;41.20;;;;;;5005652;28;20030;-68
2023/06/13 08:15:40;;;;;;;5.95;1.67;;;23.20;43.10;;;;;;5006192;28;20044;-68
2023/06/13 08:18:05;;;;;;;3.47;1.40;;;23.40;42.30;;;;;;5005969;28;20095;-71
2023/06/13 08:20:30;;;;;;;3.97;1.70;;;23.50;40.00;;;;;;4993319;28;20103;-69
2023/06/13 08:22:56;;;;;;;5.22;1.45;;;23.40;41.90;;;;;;4997909;28;20369;-71
2023/06/13 08:25:22;;;;;;;4.38;1.70;;;23.70;40.30;;;;;;5005255;28;20113;-68
2023/06/13 08:27:48;;;;;;;7.78;1.73;;;24.00;41.00;;;;;;5003484;28;20053;-68
2023/06/13 08:30:14;;;;;;;4.80;1.67;;;23.70;42.40;;;;;;5006132;28;20056;-67
2023/06/13 08:32:41;;;;;;;6.10;1.88;;;23.80;40.00;;;;;;5005081;28;20488;-69
2023/06/13 08:35:07;;;;;;;5.13;1.50;;;24.00;41.70;;;;;;5016189;28;20101;-68
2023/06/13 08:37:33;;;;;;;4.10;1.60;;;24.30;41.10;;;;;;5015312;28;20148;-67
2023/06/13 08:39:58;;;;;;;5.70;1.77;;;24.50;42.40;;;;;;5018555;28;20045;-68
2023/06/13 08:42:25;;;;;;;4.85;1.70;;;24.90;39.80;;;;;;5012769;28;20062;-70
2023/06/13 08:44:51;;;;;;;7.35;1.70;;;24.50;38.50;;;;;;5017862;28;20083;-67
2023/06/13 08:47:18;;;;;;;4.30;1.58;;;24.40;38.30;;;;;;5015934;28;20056;-69
2023/06/13 08:49:46;;;;;;;6.13;1.70;;;24.90;37.80;;;;;;5009400;28;20030;-68
2023/06/13 08:52:13;;;;;;;6.18;1.77;;;25.20;37.10;;;;;;5014197;28;20056;-68
2023/06/13 08:54:43;;;;;;;4.70;1.48;;;24.90;38.10;;;;;;5026075;28;20021;-68
2023/06/13 08:57:14;;;;;;;5.72;1.70;;;25.00;38.20;;;;;;5005169;28;20049;-68
2023/06/13 08:59:42;;;;;;;3.47;1.50;;;25.20;38.10;;;;;;5005117;28;20129;-68
2023/06/13 09:02:10;;;;;;;7.43;1.73;;;25.30;39.30;;;;;;5002513;28;20351;-69
2023/06/13 09:04:37;;;;;;;5.43;1.70;;;25.50;35.80;;;;;;4999921;28;20052;-67
2023/06/13 09:07:03;;;;;;;2.67;1.42;;;25.30;36.70;;;;;;5003620;28;20034;-67
2023/06/13 09:09:30;;;;;;;6.10;1.73;;;26.00;38.90;;;;;;5011634;28;20137;-67
2023/06/13 09:11:59;;;;;;;4.03;2.00;;;26.20;35.40;;;;;;5016118;28;20053;-67
2023/06/13 09:14:24;;;;;;;3.40;1.80;;;26.00;35.70;;;;;;5016364;28;20033;-68
2023/06/13 09:16:54;;;;;;;6.20;1.52;;;26.40;36.90;;;;;;5013307;28;20057;-67
2023/06/13 09:19:19;;;;;;;7.72;2.13;;;26.10;36.60;;;;;;5007532;28;20034;-68
2023/06/13 09:21:45;;;;;;;4.68;1.75;;;26.30;33.70;;;;;;5009318;28;20115;-68
2023/06/13 09:24:12;;;;;;;4.28;1.90;;;26.40;34.80;;;;;;5019847;28;20049;-67
2023/06/13 09:26:39;;;;;;;6.22;1.80;;;26.00;35.20;;;;;;5010200;28;20033;-67
2023/06/13 09:29:06;;;;;;;2.90;1.42;;;26.20;35.00;;;;;;5008864;28;20045;-69
2023/06/13 09:31:32;;;;;;;4.75;1.73;;;26.10;33.80;;;;;;5017479;28;20116;-69
2023/06/13 09:34:01;;;;;;;5.70;1.88;;;26.00;33.00;;;;;;5010408;28;20125;-67
2023/06/13 09:36:27;;;;;;;6.20;1.80;;;26.40;35.30;;;;;;5011473;28;20041;-67
2023/06/13 09:38:54;;;;;;;5.32;2.10;;;26.80;30.10;;;;;;5009231;28;20037;-68
2023/06/13 09:41:19;;;;;;;3.42;2.10;;;26.80;32.40;;;;;;5007690;28;20477;-67
2023/06/13 09:43:45;;;;;;;2.00;1.50;;;26.80;31.60;;;;;;5019566;28;20136;-67
2023/06/13 09:46:13;;;;;;;5.05;2.05;;;26.60;31.00;;;;;;5014596;28;20064;-67
2023/06/13 09:48:46;;;;;;;5.32;1.83;;;27.00;30.60;;;;;;5009991;28;20042;-67
2023/06/13 09:51:12;;;;;;;3.85;1.80;;;26.70;28.20;;;;;;5010632;28;20025;-67
2023/06/13 09:53:39;;;;;;;4.43;1.75;;;26.80;29.70;;;;;;5009986;28;20180;-67
2023/06/13 09:56:09;;;;;;;4.95;1.70;;;26.90;30.00;;;;;;5017709;28;20129;-68
2023/06/13 09:58:36;;;;;;;5.50;1.60;;;27.10;30.10;;;;;;5006324;28;20031;-68
2023/06/13 10:01:03;;;;;;;4.18;2.08;;;27.30;30.60;;;;;;5012836;28;20045;-68
2023/06/13 10:03:29;;;;;;;6.20;1.80;;;27.10;29.80;;;;;;5007570;28;20025;-67
2023/06/13 10:06:00;;;;;;;6.00;1.95;;;27.20;31.30;;;;;;5012553;28;20089;-68
2023/06/13 10:08:26;;;;;;;5.25;1.92;;;26.80;29.30;;;;;;5003100;28;20381;-67
2023/06/13 10:10:53;;;;;;;5.93;2.17;;;26.90;29.00;;;;;;5009889;28;20095;-69
2023/06/13 10:13:24;;;;;;;4.03;1.50;;;27.20;31.30;;;;;;5008136;28;20110;-67
2023/06/13 10:15:57;;;;;;;7.57;1.92;;;27.70;30.10;;;;;;5014312;28;20041;-68
2023/06/13 10:18:30;;;;;;;6.68;2.13;;;27.30;27.50;;;;;;5007430;28;20104;-68
2023/06/13 10:20:57;;;;;;;4.05;1.80;;;27.30;29.20;;;;;;5008995;28;20018;-69
2023/06/13 10:23:28;;;;;;;4.30;1.70;;;27.30;27.90;;;;;;5000590;28;20204;-68
2023/06/13 10:25:56;;;;;;;3.90;1.75;;;26.90;29.60;;;;;;5010344;28;20143;-68
2023/06/13 10:28:39;;;;;;;3.70;1.95;;;27.70;30.30;;;;;;5012893;28;20476;-67
2023/06/13 10:31:28;;;;;;;3.05;1.88;;;27.80;30.00;;;;;;4997532;28;20037;-68
2023/06/13 10:34:25;;;;;;;5.33;1.80;;;28.30;28.90;;;;;;5008769;28;20401;-68
2023/06/13 10:37:08;;;;;;;5.90;1.83;;;28.30;29.10;;;;;;5005562;28;20026;-69
2023/06/13 10:39:50;;;;;;;4.80;1.60;;;28.50;27.20;;;;;;4996541;28;20296;-69
2023/06/13 10:42:23;;;;;;;5.97;1.95;;;28.40;30.50;;;;;;5022966;28;20453;-68
2023/06/13 10:45:03;;;;;;;2.70;1.60;;;28.60;27.30;;;;;;5005677;28;20529;-66
2023/06/13 10:47:29;;;;;;;2.67;1.50;;;28.70;27.10;;;;;;5011785;28;20042;-67
2023/06/13 10:49:56;;;;;;;4.85;1.70;;;28.80;26.80;;;;;;5008643;28;20033;-67
2023/06/13 10:52:23;;;;;;;6.50;1.80;;;28.80;26.70;;;;;;5011716;28;20461;-67
2023/06/13 10:54:53;;;;;;;3.53;1.73;;;29.20;28.50;;;;;;5008331;28;20327;-67
2023/06/13 10:57:19;;;;;;;5.13;1.63;;;29.20;25.50;;;;;;5006274;28;20033;-71
2023/06/13 10:59:47;;;;;;;3.40;1.83;;;29.50;24.30;;;;;;5004592;28;20059;-68
2023/06/13 11:02:15;;;;;;;4.97;1.83;;;29.30;25.70;;;;;;5003460;28;20085;-69
2023/06/13 11:04:50;;;;;;;4.05;1.80;;;29.50;26.60;;;;;;5004204;28;20425;-68
2023/06/13 11:07:21;;;;;;;8.52;1.52;;;29.30;24.70;;;;;;4996013;28;20129;-70
2023/06/13 11:10:08;;;;;;;1.83;1.50;;;29.80;24.00;;;;;;5004588;28;20465;-68
2023/06/13 11:12:34;;;;;;;5.68;2.00;;;29.40;24.80;;;;;;5008838;28;20144;-68
2023/06/13 11:15:00;;;;;;;2.97;1.70;;;29.30;25.90;;;;;;5010000;28;20103;-69
2023/06/13 11:17:27;;;;;;;3.70;1.55;;;29.00;24.60;;;;;;5005472;28;20565;-68
2023/06/13 11:19:56;;;;;;;5.18;1.95;;;29.50;25.80;;;;;;5006239;28;20288;-68
2023/06/13 11:22:22;;;;;;;4.15;1.85;;;29.80;27.40;;;;;;5002652;28;20034;-68
2023/06/13 11:24:48;;;;;;;2.17;1.48;;;29.40;25.90;;;;;;5007318;28;20033;-68
2023/06/13 11:27:16;;;;;;;5.38;1.70;;;29.50;25.00;;;;;;5009667;28;20026;-71
2023/06/13 11:29:43;;;;;;;7.43;2.15;;;29.50;25.10;;;;;;5007823;28;20422;-69
2023/06/13 11:32:10;;;;;;;6.57;1.88;;;29.80;24.00;;;;;;5006848;28;20097;-69
2023/06/13 11:34:42;;;;;;;7.20;1.77;;;30.00;26.60;;;;;;5007259;28;20116;-70
2023/06/13 11:37:44;;;;;;;2.67;1.60;;;29.60;25.20;;;;;;5004713;28;20030;-69
2023/06/13 11:40:14;;;;;;;4.55;1.60;;;30.20;25.50;;;;;;5001887;28;20045;-69
2023/06/13 11:42:41;;;;;;;2.92;1.70;;;30.20;24.30;;;;;;5011988;28;20045;-68
2023/06/13 11:45:07;;;;;;;2.53;1.50;;;30.50;25.60;;;;;;5005358;28;20077;-68
2023/06/13 11:47:33;;;;;;;5.32;1.63;;;30.10;24.40;;;;;;5006093;28;20066;-68
2023/06/13 11:49:59;;;;;;;3.55;1.77;;;30.50;24.10;;;;;;5009139;28;20030;-68
2023/06/13 11:52:24;;;;;;;5.03;1.73;;;30.90;25.00;;;;;;5005053;28;20102;-68
2023/06/13 11:54:50;;;;;;;4.43;1.70;;;31.20;24.90;;;;;;5012406;28;20399;-69
2023/06/13 11:57:17;;;;;;;4.28;1.83;;;31.20;25.70;;;;;;5006408;28;20442;-69
2023/06/13 11:59:43;;;;;;;7.78;1.60;;;31.70;24.90;;;;;;5017318;28;20040;-69
2023/06/13 12:02:09;;;;;;;3.10;1.70;;;31.70;22.50;;;;;;5008152;28;20319;-69
2023/06/13 12:04:36;;;;;;;3.45;1.75;;;32.00;24.10;;;;;;5000074;28;20060;-69
2023/06/13 12:07:06;;;;;;;6.50;1.77;;;31.30;24.10;;;;;;5005513;28;20068;-69
2023/06/13 12:09:31;;;;;;;15.50;2.08;;;32.30;26.20;;;;;;5001668;28;20073;-67
2023/06/13 12:11:57;;;;;;;6.30;1.83;;;32.50;24.20;;;;;;5008279;28;20426;-67
2023/06/13 12:14:23;;;;;;;5.70;1.55;;;32.90;24.40;;;;;;5008003;28;20041;-67
2023/06/13 12:16:54;;;;;;;4.22;1.70;;;33.10;23.80;;;;;;5004069;28;20521;-67
2023/06/13 12:19:21;;;;;;;2.58;1.40;;;33.40;21.20;;;;;;4992472;28;20117;-69
2023/06/13 12:21:50;;;;;;;2.88;1.42;;;32.90;23.40;;;;;;5000072;28;20029;-71
2023/06/13 12:24:16;;;;;;;4.93;1.73;;;32.70;21.90;;;;;;4999227;28;20048;-68
2023/06/13 12:26:44;;;;;;;4.95;2.08;;;33.40;22.30;;;;;;5003739;28;20176;-67
2023/06/13 12:29:16;;;;;;;6.50;1.77;;;33.50;22.50;;;;;;4999971;28;20057;-67
2023/06/13 12:31:44;;;;;;;5.07;1.90;;;33.40;21.20;;;;;;5003392;28;20092;-66
2023/06/13 12:34:18;;;;;;;6.22;1.70;;;32.20;20.70;;;;;;5002680;28;20102;-68
2023/06/13 12:36:45;;;;;;;6.70;2.08;;;31.90;23.70;;;;;;4999589;28;20026;-69
2023/06/13 12:39:14;;;;;;;3.88;1.40;;;32.20;22.60;;;;;;5000813;28;20037;-67
2023/06/13 12:41:43;;;;;;;5.32;2.08;;;32.60;23.00;;;;;;5005657;28;20026;-69
2023/06/13 12:44:09;;;;;;;2.72;1.63;;;32.70;22.70;;;;;;4997681;28;20117;-67
2023/06/13 12:46:38;;;;;;;3.03;1.75;;;33.00;22.50;;;;;;4997603;28;20077;-67